createdAt,value
2022-09-07T00:08:55.635Z,100.00
2022-09-07T00:19:03.910Z,100.00
2022-09-07T00:29:08.228Z,100.00
2022-09-07T00:39:12.121Z,100.00
2022-09-07T00:49:19.674Z,100.00
2022-09-07T00:59:25.352Z,100.00
2022-09-07T01:09:28.162Z,100.00
2022-09-07T01:19:54.720Z,100.00
2022-09-07T01:30:07.538Z,100.00
2022-09-07T01:40:22.026Z,100.00
2022-09-07T01:50:58.371Z,100.00
2022-09-07T02:01:08.398Z,100.00
2022-09-07T02:11:16.490Z,100.00
2022-09-07T02:21:26.532Z,100.00
2022-09-07T02:31:28.856Z,100.00
2022-09-07T02:41:33.307Z,100.00
2022-09-07T02:52:05.555Z,100.00
2022-09-07T03:02:34.399Z,100.00
2022-09-07T03:12:46.464Z,100.00
2022-09-07T03:22:49.568Z,100.00
2022-09-07T03:32:51.753Z,100.00
2022-09-07T03:42:53.453Z,100.00
2022-09-07T03:52:55.158Z,100.00
2022-09-07T04:02:56.784Z,100.00
2022-09-07T04:12:58.614Z,100.00
2022-09-07T04:23:00.367Z,100.00
2022-09-07T04:33:02.063Z,100.00
2022-09-07T04:43:05.556Z,100.00
2022-09-07T04:53:07.259Z,100.00
2022-09-07T05:03:09.339Z,100.00
2022-09-07T05:13:11.021Z,100.00
2022-09-07T05:23:12.882Z,100.00
2022-09-07T05:33:14.529Z,100.00
2022-09-07T05:43:16.444Z,100.00
2022-09-07T05:53:20.013Z,100.00
2022-09-07T06:03:22.282Z,100.00
2022-09-07T06:13:24.434Z,100.00
2022-09-07T06:23:26.967Z,100.00
2022-09-07T06:33:28.937Z,100.00
2022-09-07T06:43:31.214Z,100.00
2022-09-07T06:53:35.200Z,100.00
2022-09-07T07:03:38.154Z,100.00
2022-09-07T07:13:41.506Z,100.00
2022-09-07T07:23:43.744Z,100.00
2022-09-07T07:33:47.145Z,98.47
2022-09-07T07:43:54.060Z,90.38
2022-09-07T07:53:56.634Z,89.11
2022-09-07T08:03:58.499Z,85.05
2022-09-07T08:14:02.278Z,80.35
2022-09-07T08:24:04.197Z,75.94
2022-09-07T08:34:07.609Z,74.83
2022-09-07T08:44:14.293Z,68.71
2022-09-07T08:54:17.081Z,61.56
2022-09-07T09:04:23.552Z,55.85
2022-09-07T09:14:58.215Z,52.45
2022-09-07T09:25:14.665Z,47.84
2022-09-07T09:35:36.472Z,46.40
2022-09-07T09:56:07.672Z,42.16
2022-09-07T10:06:16.769Z,39.32
2022-09-07T10:16:19.512Z,39.63
2022-09-07T10:26:29.061Z,39.10
2022-09-07T10:36:39.456Z,35.53
2022-09-07T10:46:59.963Z,36.13
2022-09-07T10:57:20.470Z,32.18
2022-09-07T11:07:25.310Z,31.37
2022-09-07T11:17:30.195Z,30.73
2022-09-07T11:27:45.297Z,27.79
2022-09-07T11:38:01.629Z,29.52
2022-09-07T11:48:30.344Z,28.86
2022-09-07T11:58:58.084Z,26.63
2022-09-07T12:09:44.597Z,28.01
2022-09-07T12:19:46.467Z,24.33
2022-09-07T12:29:58.094Z,25.71
2022-09-07T12:40:34.701Z,23.61
2022-09-07T12:50:55.358Z,22.95
2022-09-07T13:01:09.417Z,19.74
2022-09-07T13:11:37.475Z,19.50
2022-09-07T13:21:49.024Z,20.13
2022-09-07T13:32:21.041Z,20.65
2022-09-07T13:42:29.568Z,18.41
2022-09-07T13:52:43.112Z,20.23
2022-09-07T14:02:56.791Z,19.05
2022-09-07T14:13:12.415Z,19.08
2022-09-07T14:23:28.423Z,20.74
2022-09-07T14:33:33.663Z,20.15
2022-09-07T14:43:51.999Z,21.04
2022-09-07T14:54:02.832Z,20.08
2022-09-07T15:04:17.525Z,25.44
2022-09-07T15:14:21.382Z,23.87
2022-09-07T15:24:24.072Z,32.89
2022-09-07T15:34:25.771Z,25.24
2022-09-07T15:44:28.538Z,31.13
2022-09-07T15:54:31.103Z,31.57
2022-09-07T16:04:38.517Z,33.53
2022-09-07T16:14:56.451Z,38.92
2022-09-07T16:25:00.541Z,40.66
2022-09-07T16:35:02.462Z,42.38
2022-09-07T16:55:26.528Z,47.83
2022-09-07T17:05:28.631Z,50.29
2022-09-07T17:15:37.027Z,51.95
2022-09-07T17:25:40.483Z,56.41
2022-09-07T17:35:42.273Z,59.77
2022-09-07T17:45:44.247Z,61.31
2022-09-07T17:55:46.215Z,63.50
2022-09-07T18:05:53.959Z,65.21
2022-09-07T18:15:57.000Z,69.03
2022-09-07T18:25:59.064Z,73.07
2022-09-07T18:36:06.940Z,74.52
2022-09-07T18:46:15.804Z,78.43
2022-09-07T18:56:22.852Z,82.10
2022-09-07T19:06:25.696Z,87.44
2022-09-07T19:16:28.773Z,91.49
2022-09-07T19:26:36.409Z,91.38
2022-09-07T19:36:39.413Z,91.65
2022-09-07T19:46:45.187Z,94.36
2022-09-07T19:56:48.035Z,94.66
2022-09-07T20:06:51.629Z,95.67
2022-09-07T20:16:53.802Z,98.42
2022-09-07T20:36:59.794Z,100.00
2022-09-07T20:47:01.642Z,100.00
2022-09-07T20:57:04.245Z,100.00
2022-09-07T21:07:07.257Z,100.00
2022-09-07T21:17:21.275Z,100.00
2022-09-07T21:27:23.975Z,100.00
2022-09-07T21:37:25.780Z,100.00
2022-09-07T21:47:28.541Z,100.00
2022-09-07T21:57:30.448Z,100.00
2022-09-07T22:07:33.981Z,100.00
2022-09-07T22:17:46.168Z,100.00
2022-09-07T22:27:48.415Z,100.00
2022-09-07T22:37:50.451Z,100.00
2022-09-07T22:47:51.962Z,100.00
2022-09-07T22:57:55.629Z,100.00
2022-09-07T23:07:57.286Z,100.00
2022-09-07T23:18:01.789Z,100.00
2022-09-07T23:28:04.524Z,100.00
2022-09-07T23:38:06.218Z,100.00
2022-09-07T23:48:07.813Z,100.00
2022-09-07T23:58:10.014Z,100.00
